sensor_id;sensor_type;location;lat;lon;timestamp;pressure;altitude;pressure_sealevel;temperature;humidity
32197;BME280;18697;42.770;23.400;2023-04-26T00:01:24;94696.53;;;17.22;60.28
32197;BME280;18697;42.770;23.400;2023-04-26T00:03:51;94691.63;;;17.28;60.38
32197;BME280;18697;42.770;23.400;2023-04-26T00:06:17;94689.19;;;17.38;59.84
32197;BME280;18697;42.770;23.400;2023-04-26T00:08:42;94679.78;;;17.17;57.61
32197;BME280;18697;42.770;23.400;2023-04-26T00:11:08;94692.25;;;16.78;56.46
32197;BME280;18697;42.770;23.400;2023-04-26T00:13:33;94683.16;;;15.93;60.14
32197;BME280;18697;42.770;23.400;2023-04-26T00:15:59;94691.63;;;15.88;62.59
32197;BME280;18697;42.770;23.400;2023-04-26T00:18:24;94677.13;;;16.38;62.64
32197;BME280;18697;42.770;23.400;2023-04-26T00:20:49;94669.31;;;16.80;61.71
32197;BME280;18697;42.770;23.400;2023-04-26T00:23:16;94665.59;;;17.09;60.68
32197;BME280;18697;42.770;23.400;2023-04-26T00:25:41;94668.88;;;17.32;59.89
32197;BME280;18697;42.770;23.400;2023-04-26T00:28:06;94662.78;;;17.47;59.29
32197;BME280;18697;42.770;23.400;2023-04-26T00:30:34;94666.34;;;17.47;58.35
32197;BME280;18697;42.770;23.400;2023-04-26T00:33:01;94655.50;;;17.57;58.47
32197;BME280;18697;42.770;23.400;2023-04-26T00:35:27;94657.94;;;17.47;57.26
32197;BME280;18697;42.770;23.400;2023-04-26T00:37:52;94657.50;;;17.05;55.54
32197;BME280;18697;42.770;23.400;2023-04-26T00:40:17;94648.88;;;16.36;60.71
32197;BME280;18697;42.770;23.400;2023-04-26T00:42:44;94652.59;;;15.95;59.99
32197;BME280;18697;42.770;23.400;2023-04-26T00:45:10;94644.47;;;16.22;62.89
32197;BME280;18697;42.770;23.400;2023-04-26T00:47:35;94650.13;;;16.65;61.94
32197;BME280;18697;42.770;23.400;2023-04-26T00:50:01;94650.31;;;16.91;60.97
32197;BME280;18697;42.770;23.400;2023-04-26T00:52:27;94646.13;;;17.17;59.96
32197;BME280;18697;42.770;23.400;2023-04-26T00:54:53;94641.88;;;17.29;59.25
32197;BME280;18697;42.770;23.400;2023-04-26T00:57:20;94638.19;;;17.53;58.71
32197;BME280;18697;42.770;23.400;2023-04-26T00:59:46;94646.63;;;17.53;58.38
32197;BME280;18697;42.770;23.400;2023-04-26T01:02:11;94645.47;;;17.80;57.92
32197;BME280;18697;42.770;23.400;2023-04-26T01:04:37;94647.28;;;17.91;56.88
32197;BME280;18697;42.770;23.400;2023-04-26T01:07:06;94657.28;;;18.05;56.39
32197;BME280;18697;42.770;23.400;2023-04-26T01:09:32;94662.38;;;18.20;56.15
32197;BME280;18697;42.770;23.400;2023-04-26T01:11:59;94656.78;;;18.20;56.10
32197;BME280;18697;42.770;23.400;2023-04-26T01:14:24;94655.44;;;18.08;55.60
32197;BME280;18697;42.770;23.400;2023-04-26T01:16:51;94665.50;;;18.16;55.92
32197;BME280;18697;42.770;23.400;2023-04-26T01:19:17;94660.78;;;18.24;55.91
32197;BME280;18697;42.770;23.400;2023-04-26T01:21:42;94669.50;;;18.08;55.19
32197;BME280;18697;42.770;23.400;2023-04-26T01:24:09;94664.66;;;17.76;55.26
32197;BME280;18697;42.770;23.400;2023-04-26T01:26:35;94660.66;;;17.53;56.47
32197;BME280;18697;42.770;23.400;2023-04-26T01:29:12;94658.53;;;17.40;57.16
32197;BME280;18697;42.770;23.400;2023-04-26T01:31:37;94648.31;;;17.42;57.67
32197;BME280;18697;42.770;23.400;2023-04-26T01:34:02;94658.06;;;17.55;56.83
32197;BME280;18697;42.770;23.400;2023-04-26T01:36:28;94650.19;;;17.53;57.57
32197;BME280;18697;42.770;23.400;2023-04-26T01:38:53;94651.34;;;17.26;55.38
32197;BME280;18697;42.770;23.400;2023-04-26T01:41:19;94662.38;;;17.05;54.25
32197;BME280;18697;42.770;23.400;2023-04-26T01:43:44;94661.81;;;16.88;58.10
32197;BME280;18697;42.770;23.400;2023-04-26T01:46:10;94668.09;;;17.13;58.31
32197;BME280;18697;42.770;23.400;2023-04-26T01:48:35;94664.63;;;17.25;57.92
32197;BME280;18697;42.770;23.400;2023-04-26T01:51:00;94671.13;;;17.15;57.05
32197;BME280;18697;42.770;23.400;2023-04-26T01:53:26;94673.25;;;17.08;56.87
32197;BME280;18697;42.770;23.400;2023-04-26T01:55:51;94677.59;;;16.91;58.01
32197;BME280;18697;42.770;23.400;2023-04-26T01:58:17;94690.09;;;16.90;57.80
32197;BME280;18697;42.770;23.400;2023-04-26T02:00:42;94678.41;;;16.86;57.40
32197;BME280;18697;42.770;23.400;2023-04-26T02:03:07;94678.78;;;16.77;56.73
32197;BME280;18697;42.770;23.400;2023-04-26T02:05:33;94676.78;;;16.71;57.43
32197;BME280;18697;42.770;23.400;2023-04-26T02:07:58;94667.38;;;16.44;57.10
32197;BME280;18697;42.770;23.400;2023-04-26T02:10:23;94661.00;;;16.44;58.88
32197;BME280;18697;42.770;23.400;2023-04-26T02:12:50;94651.56;;;16.71;58.13
32197;BME280;18697;42.770;23.400;2023-04-26T02:15:15;94656.38;;;16.95;57.86
32197;BME280;18697;42.770;23.400;2023-04-26T02:17:41;94650.97;;;17.16;57.05
32197;BME280;18697;42.770;23.400;2023-04-26T02:20:07;94637.78;;;17.11;56.53
32197;BME280;18697;42.770;23.400;2023-04-26T02:22:35;94636.41;;;17.18;56.32
32197;BME280;18697;42.770;23.400;2023-04-26T02:25:01;94624.47;;;16.98;56.20
32197;BME280;18697;42.770;23.400;2023-04-26T02:27:26;94623.94;;;17.00;56.67
32197;BME280;18697;42.770;23.400;2023-04-26T02:29:52;94620.06;;;17.03;56.72
32197;BME280;18697;42.770;23.400;2023-04-26T02:32:17;94616.78;;;17.18;56.75
32197;BME280;18697;42.770;23.400;2023-04-26T02:34:43;94623.25;;;16.94;55.35
32197;BME280;18697;42.770;23.400;2023-04-26T02:37:08;94628.47;;;17.03;56.29
32197;BME280;18697;42.770;23.400;2023-04-26T02:39:34;94631.94;;;16.47;52.00
32197;BME280;18697;42.770;23.400;2023-04-26T02:41:59;94629.38;;;15.40;55.62
32197;BME280;18697;42.770;23.400;2023-04-26T02:44:28;94643.97;;;15.28;58.17
32197;BME280;18697;42.770;23.400;2023-04-26T02:46:54;94655.16;;;13.62;60.01
32197;BME280;18697;42.770;23.400;2023-04-26T02:49:20;94656.19;;;13.87;63.42
32197;BME280;18697;42.770;23.400;2023-04-26T02:51:45;94661.25;;;13.49;63.93
32197;BME280;18697;42.770;23.400;2023-04-26T02:54:10;94668.59;;;13.46;66.13
32197;BME280;18697;42.770;23.400;2023-04-26T02:56:35;94659.22;;;14.00;67.59
32197;BME280;18697;42.770;23.400;2023-04-26T02:59:01;94650.16;;;14.63;65.40
32197;BME280;18697;42.770;23.400;2023-04-26T03:01:26;94652.56;;;14.89;64.31
32197;BME280;18697;42.770;23.400;2023-04-26T03:03:51;94644.78;;;15.17;62.68
32197;BME280;18697;42.770;23.400;2023-04-26T03:06:17;94637.50;;;15.74;61.67
32197;BME280;18697;42.770;23.400;2023-04-26T03:08:42;94632.84;;;15.58;57.97
32197;BME280;18697;42.770;23.400;2023-04-26T03:11:07;94622.19;;;15.51;60.51
32197;BME280;18697;42.770;23.400;2023-04-26T03:13:33;94624.56;;;15.35;57.67
32197;BME280;18697;42.770;23.400;2023-04-26T03:15:58;94628.09;;;15.41;61.11
32197;BME280;18697;42.770;23.400;2023-04-26T03:18:23;94625.59;;;15.68;60.24
32197;BME280;18697;42.770;23.400;2023-04-26T03:20:49;94621.81;;;15.30;60.19
32197;BME280;18697;42.770;23.400;2023-04-26T03:23:14;94624.41;;;15.22;62.20
32197;BME280;18697;42.770;23.400;2023-04-26T03:25:40;94620.50;;;15.36;59.77
32197;BME280;18697;42.770;23.400;2023-04-26T03:28:05;94616.22;;;15.65;61.36
32197;BME280;18697;42.770;23.400;2023-04-26T03:30:30;94614.44;;;15.92;60.06
32197;BME280;18697;42.770;23.400;2023-04-26T03:32:56;94609.06;;;16.43;58.95
32197;BME280;18697;42.770;23.400;2023-04-26T03:35:21;94613.94;;;16.61;57.70
32197;BME280;18697;42.770;23.400;2023-04-26T03:37:47;94614.16;;;15.96;53.66
32197;BME280;18697;42.770;23.400;2023-04-26T03:40:12;94614.59;;;15.45;58.74
32197;BME280;18697;42.770;23.400;2023-04-26T03:42:37;94617.78;;;15.25;60.07
32197;BME280;18697;42.770;23.400;2023-04-26T03:45:04;94618.72;;;14.98;59.00
32197;BME280;18697;42.770;23.400;2023-04-26T03:47:30;94621.22;;;15.42;60.99
32197;BME280;18697;42.770;23.400;2023-04-26T03:49:56;94615.22;;;16.17;58.87
32197;BME280;18697;42.770;23.400;2023-04-26T03:52:21;94620.22;;;16.00;55.24
32197;BME280;18697;42.770;23.400;2023-04-26T03:54:47;94629.97;;;14.87;59.81
32197;BME280;18697;42.770;23.400;2023-04-26T03:57:12;94637.44;;;15.50;62.24
32197;BME280;18697;42.770;23.400;2023-04-26T03:59:37;94642.81;;;15.77;57.99
32197;BME280;18697;42.770;23.400;2023-04-26T04:02:03;94649.13;;;15.54;58.13
32197;BME280;18697;42.770;23.400;2023-04-26T04:04:28;94658.22;;;13.69;62.56
32197;BME280;18697;42.770;23.400;2023-04-26T04:06:53;94647.41;;;14.40;63.05
32197;BME280;18697;42.770;23.400;2023-04-26T04:09:19;94658.78;;;14.70;64.68
32197;BME280;18697;42.770;23.400;2023-04-26T04:11:44;94650.53;;;16.26;62.61
32197;BME280;18697;42.770;23.400;2023-04-26T04:14:10;94659.09;;;17.01;59.38
32197;BME280;18697;42.770;23.400;2023-04-26T04:16:36;94669.00;;;17.77;56.98
32197;BME280;18697;42.770;23.400;2023-04-26T04:19:01;94664.63;;;18.08;56.44
32197;BME280;18697;42.770;23.400;2023-04-26T04:21:27;94653.91;;;18.65;55.06
32197;BME280;18697;42.770;23.400;2023-04-26T04:23:53;94656.47;;;18.89;53.48
32197;BME280;18697;42.770;23.400;2023-04-26T04:26:18;94649.56;;;18.90;54.47
32197;BME280;18697;42.770;23.400;2023-04-26T04:28:45;94662.09;;;19.02;52.22
32197;BME280;18697;42.770;23.400;2023-04-26T04:31:11;94659.72;;;19.07;54.66
32197;BME280;18697;42.770;23.400;2023-04-26T04:33:37;94664.78;;;19.21;55.12
32197;BME280;18697;42.770;23.400;2023-04-26T04:36:06;94662.41;;;19.12;54.71
32197;BME280;18697;42.770;23.400;2023-04-26T04:38:32;94665.19;;;19.25;55.52
32197;BME280;18697;42.770;23.400;2023-04-26T04:40:57;94670.97;;;19.41;55.14
32197;BME280;18697;42.770;23.400;2023-04-26T04:43:23;94667.72;;;19.16;54.19
32197;BME280;18697;42.770;23.400;2023-04-26T04:45:49;94673.00;;;19.19;54.55
32197;BME280;18697;42.770;23.400;2023-04-26T04:48:14;94676.59;;;18.93;55.11
32197;BME280;18697;42.770;23.400;2023-04-26T04:50:40;94669.03;;;18.88;54.97
32197;BME280;18697;42.770;23.400;2023-04-26T04:53:09;94669.03;;;18.75;55.18
32197;BME280;18697;42.770;23.400;2023-04-26T04:55:34;94664.16;;;18.76;55.36
32197;BME280;18697;42.770;23.400;2023-04-26T04:58:02;94672.06;;;18.64;54.31
32197;BME280;18697;42.770;23.400;2023-04-26T05:00:28;94684.03;;;18.38;55.07
32197;BME280;18697;42.770;23.400;2023-04-26T05:02:54;94683.84;;;18.62;56.05
32197;BME280;18697;42.770;23.400;2023-04-26T05:05:19;94680.69;;;18.39;55.29
32197;BME280;18697;42.770;23.400;2023-04-26T05:07:45;94678.19;;;18.36;56.16
32197;BME280;18697;42.770;23.400;2023-04-26T05:10:10;94682.13;;;18.01;56.44
32197;BME280;18697;42.770;23.400;2023-04-26T05:12:36;94688.66;;;17.90;56.62
32197;BME280;18697;42.770;23.400;2023-04-26T05:15:02;94688.03;;;17.97;57.73
32197;BME280;18697;42.770;23.400;2023-04-26T05:17:28;94680.28;;;18.03;57.89
32197;BME280;18697;42.770;23.400;2023-04-26T05:19:56;94681.25;;;18.06;57.48
32197;BME280;18697;42.770;23.400;2023-04-26T05:22:22;94696.25;;;17.95;54.77
32197;BME280;18697;42.770;23.400;2023-04-26T05:24:47;94682.66;;;17.99;57.38
32197;BME280;18697;42.770;23.400;2023-04-26T05:27:13;94691.94;;;17.94;56.08
32197;BME280;18697;42.770;23.400;2023-04-26T05:29:38;94688.00;;;17.84;56.89
32197;BME280;18697;42.770;23.400;2023-04-26T05:32:04;94697.06;;;17.77;57.03
32197;BME280;18697;42.770;23.400;2023-04-26T05:34:30;94687.06;;;17.44;57.58
32197;BME280;18697;42.770;23.400;2023-04-26T05:36:55;94692.97;;;17.40;59.06
32197;BME280;18697;42.770;23.400;2023-04-26T05:39:21;94690.94;;;17.22;56.89
32197;BME280;18697;42.770;23.400;2023-04-26T05:41:46;94693.50;;;17.20;58.15
32197;BME280;18697;42.770;23.400;2023-04-26T05:44:12;94699.66;;;17.00;56.86
32197;BME280;18697;42.770;23.400;2023-04-26T05:46:39;94707.38;;;16.94;58.71
32197;BME280;18697;42.770;23.400;2023-04-26T05:49:05;94703.59;;;16.91;58.32
32197;BME280;18697;42.770;23.400;2023-04-26T05:51:30;94699.03;;;16.88;58.52
32197;BME280;18697;42.770;23.400;2023-04-26T05:53:56;94698.84;;;17.05;58.94
32197;BME280;18697;42.770;23.400;2023-04-26T05:56:22;94707.38;;;17.13;59.22
32197;BME280;18697;42.770;23.400;2023-04-26T05:58:48;94708.53;;;17.23;58.85
32197;BME280;18697;42.770;23.400;2023-04-26T06:01:14;94703.75;;;17.55;57.35
32197;BME280;18697;42.770;23.400;2023-04-26T06:03:39;94704.28;;;17.54;57.20
32197;BME280;18697;42.770;23.400;2023-04-26T06:06:04;94706.13;;;17.70;56.67
32197;BME280;18697;42.770;23.400;2023-04-26T06:08:30;94703.44;;;17.78;56.71
32197;BME280;18697;42.770;23.400;2023-04-26T06:10:55;94713.31;;;17.65;57.55
32197;BME280;18697;42.770;23.400;2023-04-26T06:13:21;94713.78;;;17.69;57.30
32197;BME280;18697;42.770;23.400;2023-04-26T06:15:46;94716.38;;;17.67;56.49
32197;BME280;18697;42.770;23.400;2023-04-26T06:18:11;94708.41;;;17.85;56.76
32197;BME280;18697;42.770;23.400;2023-04-26T06:20:37;94707.50;;;17.95;56.29
32197;BME280;18697;42.770;23.400;2023-04-26T06:23:02;94700.09;;;17.23;56.68
32197;BME280;18697;42.770;23.400;2023-04-26T06:25:28;94697.28;;;17.60;57.23
32197;BME280;18697;42.770;23.400;2023-04-26T06:27:54;94698.75;;;17.67;57.20
32197;BME280;18697;42.770;23.400;2023-04-26T06:30:19;94701.75;;;17.13;58.20
32197;BME280;18697;42.770;23.400;2023-04-26T06:32:44;94695.94;;;17.11;59.21
32197;BME280;18697;42.770;23.400;2023-04-26T06:35:10;94694.81;;;17.00;60.15
32197;BME280;18697;42.770;23.400;2023-04-26T06:37:36;94691.94;;;17.06;59.72
32197;BME280;18697;42.770;23.400;2023-04-26T06:40:01;94679.00;;;16.79;60.50
32197;BME280;18697;42.770;23.400;2023-04-26T06:42:27;94687.22;;;16.95;60.27
32197;BME280;18697;42.770;23.400;2023-04-26T06:44:53;94688.88;;;17.23;58.93
32197;BME280;18697;42.770;23.400;2023-04-26T06:47:18;94690.84;;;17.28;57.91
32197;BME280;18697;42.770;23.400;2023-04-26T06:49:44;94689.03;;;17.30;58.81
32197;BME280;18697;42.770;23.400;2023-04-26T06:52:09;94688.88;;;17.60;58.85
32197;BME280;18697;42.770;23.400;2023-04-26T06:54:35;94694.94;;;17.46;57.72
32197;BME280;18697;42.770;23.400;2023-04-26T06:57:00;94690.31;;;17.29;58.67
32197;BME280;18697;42.770;23.400;2023-04-26T06:59:26;94686.22;;;16.93;58.95
32197;BME280;18697;42.770;23.400;2023-04-26T07:01:52;94690.44;;;16.81;59.67
32197;BME280;18697;42.770;23.400;2023-04-26T07:04:18;94683.13;;;16.96;59.21
32197;BME280;18697;42.770;23.400;2023-04-26T07:06:44;94691.00;;;16.98;58.76
32197;BME280;18697;42.770;23.400;2023-04-26T07:09:10;94687.00;;;16.93;59.19
32197;BME280;18697;42.770;23.400;2023-04-26T07:11:36;94683.31;;;16.80;59.42
32197;BME280;18697;42.770;23.400;2023-04-26T07:14:02;94685.25;;;16.90;60.68
32197;BME280;18697;42.770;23.400;2023-04-26T07:16:27;94686.94;;;16.74;60.23
32197;BME280;18697;42.770;23.400;2023-04-26T07:18:52;94688.88;;;16.85;59.60
32197;BME280;18697;42.770;23.400;2023-04-26T07:21:22;94688.13;;;16.85;60.02
32197;BME280;18697;42.770;23.400;2023-04-26T07:23:47;94695.34;;;16.99;57.30
32197;BME280;18697;42.770;23.400;2023-04-26T07:26:13;94687.75;;;17.13;58.20
32197;BME280;18697;42.770;23.400;2023-04-26T07:28:38;94704.34;;;17.29;56.97
32197;BME280;18697;42.770;23.400;2023-04-26T07:31:04;94686.28;;;16.87;55.80
32197;BME280;18697;42.770;23.400;2023-04-26T07:33:29;94697.94;;;16.72;56.38
32197;BME280;18697;42.770;23.400;2023-04-26T07:35:56;94686.34;;;16.57;58.26
32197;BME280;18697;42.770;23.400;2023-04-26T07:38:23;94696.94;;;16.70;60.40
32197;BME280;18697;42.770;23.400;2023-04-26T07:40:49;94705.66;;;16.66;57.85
32197;BME280;18697;42.770;23.400;2023-04-26T07:43:15;94702.66;;;16.83;56.80
32197;BME280;18697;42.770;23.400;2023-04-26T07:45:41;94697.66;;;15.97;59.32
32197;BME280;18697;42.770;23.400;2023-04-26T07:48:06;94706.66;;;16.15;59.11
32197;BME280;18697;42.770;23.400;2023-04-26T07:50:32;94704.75;;;15.98;57.90
32197;BME280;18697;42.770;23.400;2023-04-26T07:52:57;94711.63;;;15.67;57.54
32197;BME280;18697;42.770;23.400;2023-04-26T07:55:23;94714.00;;;15.58;58.22
32197;BME280;18697;42.770;23.400;2023-04-26T07:57:48;94706.94;;;15.40;59.79
32197;BME280;18697;42.770;23.400;2023-04-26T08:00:14;94705.91;;;14.96;60.61
32197;BME280;18697;42.770;23.400;2023-04-26T08:02:41;94706.75;;;14.80;63.16
32197;BME280;18697;42.770;23.400;2023-04-26T08:05:07;94701.72;;;14.62;62.08
32197;BME280;18697;42.770;23.400;2023-04-26T08:07:33;94702.50;;;14.62;63.33
32197;BME280;18697;42.770;23.400;2023-04-26T08:09:58;94712.28;;;14.91;63.31
32197;BME280;18697;42.770;23.400;2023-04-26T08:12:24;94703.63;;;14.95;62.54
32197;BME280;18697;42.770;23.400;2023-04-26T08:14:49;94711.00;;;14.92;61.60
32197;BME280;18697;42.770;23.400;2023-04-26T08:17:15;94702.13;;;14.88;61.91
32197;BME280;18697;42.770;23.400;2023-04-26T08:19:40;94703.09;;;15.02;61.17
32197;BME280;18697;42.770;23.400;2023-04-26T08:22:05;94704.34;;;15.01;61.44
32197;BME280;18697;42.770;23.400;2023-04-26T08:24:31;94706.94;;;14.88;63.25
32197;BME280;18697;42.770;23.400;2023-04-26T08:26:57;94694.59;;;15.24;62.79
32197;BME280;18697;42.770;23.400;2023-04-26T08:29:26;94700.19;;;15.24;62.98
32197;BME280;18697;42.770;23.400;2023-04-26T08:31:55;94697.81;;;15.39;61.87
32197;BME280;18697;42.770;23.400;2023-04-26T08:34:20;94694.72;;;15.43;61.01
32197;BME280;18697;42.770;23.400;2023-04-26T08:36:46;94699.06;;;15.38;61.23
32197;BME280;18697;42.770;23.400;2023-04-26T08:39:11;94701.47;;;15.64;61.49
32197;BME280;18697;42.770;23.400;2023-04-26T08:41:49;94694.75;;;15.78;60.26
32197;BME280;18697;42.770;23.400;2023-04-26T08:44:21;94688.06;;;15.87;60.66
32197;BME280;18697;42.770;23.400;2023-04-26T08:47:12;94697.63;;;16.27;59.85
32197;BME280;18697;42.770;23.400;2023-04-26T08:49:42;94691.84;;;16.20;59.32
32197;BME280;18697;42.770;23.400;2023-04-26T08:52:10;94692.72;;;16.58;58.69
32197;BME280;18697;42.770;23.400;2023-04-26T08:54:38;94686.59;;;16.84;58.77
32197;BME280;18697;42.770;23.400;2023-04-26T08:57:05;94685.41;;;16.98;57.42
32197;BME280;18697;42.770;23.400;2023-04-26T08:59:41;94693.22;;;17.05;57.47
32197;BME280;18697;42.770;23.400;2023-04-26T09:02:09;94687.97;;;17.15;54.57
32197;BME280;18697;42.770;23.400;2023-04-26T09:04:35;94690.16;;;17.22;54.76
32197;BME280;18697;42.770;23.400;2023-04-26T09:07:03;94689.78;;;17.50;56.71
32197;BME280;18697;42.770;23.400;2023-04-26T09:09:34;94687.34;;;17.59;55.08
32197;BME280;18697;42.770;23.400;2023-04-26T09:12:03;94693.28;;;17.75;52.51
32197;BME280;18697;42.770;23.400;2023-04-26T09:14:29;94704.59;;;17.69;53.45
32197;BME280;18697;42.770;23.400;2023-04-26T09:16:55;94700.03;;;17.66;54.35
32197;BME280;18697;42.770;23.400;2023-04-26T09:22:02;94708.75;;;17.44;52.80
32197;BME280;18697;42.770;23.400;2023-04-26T09:24:45;94710.72;;;17.49;53.08
32197;BME280;18697;42.770;23.400;2023-04-26T09:27:11;94701.09;;;17.44;52.61
32197;BME280;18697;42.770;23.400;2023-04-26T09:29:36;94695.84;;;16.79;53.20
32197;BME280;18697;42.770;23.400;2023-04-26T09:32:02;94694.47;;;16.61;56.85
32197;BME280;18697;42.770;23.400;2023-04-26T09:34:28;94709.31;;;16.56;55.60
32197;BME280;18697;42.770;23.400;2023-04-26T09:36:55;94704.75;;;16.53;56.51
32197;BME280;18697;42.770;23.400;2023-04-26T09:39:35;94706.56;;;16.26;55.59
32197;BME280;18697;42.770;23.400;2023-04-26T09:42:05;94706.03;;;15.97;55.88
32197;BME280;18697;42.770;23.400;2023-04-26T09:44:31;94708.25;;;15.74;56.32
32197;BME280;18697;42.770;23.400;2023-04-26T09:47:08;94702.56;;;15.86;57.10
32197;BME280;18697;42.770;23.400;2023-04-26T09:49:47;94705.09;;;15.54;54.46
32197;BME280;18697;42.770;23.400;2023-04-26T09:52:15;94712.06;;;15.36;55.58
32197;BME280;18697;42.770;23.400;2023-04-26T09:54:49;94705.97;;;15.32;56.73
32197;BME280;18697;42.770;23.400;2023-04-26T09:57:17;94701.19;;;15.27;56.18
32197;BME280;18697;42.770;23.400;2023-04-26T09:59:48;94708.81;;;15.26;57.99
32197;BME280;18697;42.770;23.400;2023-04-26T10:04:45;94713.00;;;15.03;56.20
32197;BME280;18697;42.770;23.400;2023-04-26T10:07:12;94706.31;;;15.17;57.65
32197;BME280;18697;42.770;23.400;2023-04-26T10:09:39;94705.13;;;15.48;58.28
32197;BME280;18697;42.770;23.400;2023-04-26T10:12:06;94705.97;;;15.73;57.62
32197;BME280;18697;42.770;23.400;2023-04-26T10:14:33;94712.13;;;16.01;57.67
32197;BME280;18697;42.770;23.400;2023-04-26T10:16:59;94709.22;;;16.13;54.26
32197;BME280;18697;42.770;23.400;2023-04-26T10:19:24;94700.06;;;15.82;53.13
32197;BME280;18697;42.770;23.400;2023-04-26T10:21:52;94710.22;;;15.85;53.94
32197;BME280;18697;42.770;23.400;2023-04-26T10:24:22;94696.59;;;16.00;53.17
32197;BME280;18697;42.770;23.400;2023-04-26T10:26:49;94693.09;;;15.94;52.98
32197;BME280;18697;42.770;23.400;2023-04-26T10:29:17;94686.44;;;15.97;52.80
32197;BME280;18697;42.770;23.400;2023-04-26T10:32:12;94693.84;;;15.95;53.35
32197;BME280;18697;42.770;23.400;2023-04-26T10:34:41;94694.88;;;15.92;51.44
32197;BME280;18697;42.770;23.400;2023-04-26T10:37:10;94689.94;;;15.73;51.79
32197;BME280;18697;42.770;23.400;2023-04-26T10:39:37;94702.38;;;15.78;52.72
32197;BME280;18697;42.770;23.400;2023-04-26T10:42:23;94696.59;;;16.00;51.47
32197;BME280;18697;42.770;23.400;2023-04-26T10:44:49;94693.75;;;16.06;51.85
32197;BME280;18697;42.770;23.400;2023-04-26T10:47:33;94693.66;;;16.17;49.63
32197;BME280;18697;42.770;23.400;2023-04-26T10:50:07;94693.13;;;16.19;50.71
32197;BME280;18697;42.770;23.400;2023-04-26T10:52:34;94694.88;;;16.46;51.04
32197;BME280;18697;42.770;23.400;2023-04-26T10:55:00;94692.56;;;16.74;51.39
32197;BME280;18697;42.770;23.400;2023-04-26T10:57:46;94689.72;;;16.99;49.95
32197;BME280;18697;42.770;23.400;2023-04-26T11:00:17;94680.72;;;17.06;49.44
32197;BME280;18697;42.770;23.400;2023-04-26T11:08:14;94681.03;;;16.54;47.55
32197;BME280;18697;42.770;23.400;2023-04-26T11:10:40;94695.09;;;16.48;49.91
32197;BME280;18697;42.770;23.400;2023-04-26T11:13:06;94684.06;;;16.56;49.56
32197;BME280;18697;42.770;23.400;2023-04-26T11:15:32;94679.41;;;16.64;48.95
32197;BME280;18697;42.770;23.400;2023-04-26T11:18:01;94681.22;;;16.61;49.85
32197;BME280;18697;42.770;23.400;2023-04-26T11:20:28;94671.50;;;16.62;51.20
32197;BME280;18697;42.770;23.400;2023-04-26T11:22:54;94675.28;;;16.70;52.07
32197;BME280;18697;42.770;23.400;2023-04-26T11:25:19;94678.91;;;16.65;48.83
32197;BME280;18697;42.770;23.400;2023-04-26T11:27:45;94686.56;;;16.65;50.17
32197;BME280;18697;42.770;23.400;2023-04-26T11:30:11;94688.84;;;16.61;47.44
32197;BME280;18697;42.770;23.400;2023-04-26T11:32:36;94683.56;;;16.82;47.95
32197;BME280;18697;42.770;23.400;2023-04-26T11:35:02;94681.81;;;17.16;48.05
32197;BME280;18697;42.770;23.400;2023-04-26T11:37:28;94691.84;;;17.49;48.22
32197;BME280;18697;42.770;23.400;2023-04-26T11:39:55;94681.28;;;17.55;47.19
32197;BME280;18697;42.770;23.400;2023-04-26T11:42:24;94680.75;;;17.57;48.12
32197;BME280;18697;42.770;23.400;2023-04-26T11:44:50;94684.03;;;17.42;46.79
32197;BME280;18697;42.770;23.400;2023-04-26T11:47:17;94680.63;;;17.30;46.74
32197;BME280;18697;42.770;23.400;2023-04-26T11:49:44;94686.31;;;17.25;45.91
32197;BME280;18697;42.770;23.400;2023-04-26T11:52:10;94682.81;;;17.19;48.34
32197;BME280;18697;42.770;23.400;2023-04-26T11:54:38;94682.53;;;17.03;46.24
32197;BME280;18697;42.770;23.400;2023-04-26T11:57:14;94685.78;;;16.89;47.53
32197;BME280;18697;42.770;23.400;2023-04-26T11:59:40;94686.88;;;16.80;46.72
32197;BME280;18697;42.770;23.400;2023-04-26T12:02:06;94686.63;;;17.02;48.10
32197;BME280;18697;42.770;23.400;2023-04-26T12:04:36;94667.50;;;16.82;46.89
32197;BME280;18697;42.770;23.400;2023-04-26T12:07:03;94679.69;;;16.60;47.44
32197;BME280;18697;42.770;23.400;2023-04-26T12:09:29;94681.63;;;16.47;47.40
32197;BME280;18697;42.770;23.400;2023-04-26T12:11:56;94673.19;;;16.28;47.49
32197;BME280;18697;42.770;23.400;2023-04-26T12:14:52;94680.44;;;16.36;48.27
32197;BME280;18697;42.770;23.400;2023-04-26T12:17:17;94672.81;;;16.37;47.15
32197;BME280;18697;42.770;23.400;2023-04-26T12:19:43;94681.16;;;16.42;48.16
32197;BME280;18697;42.770;23.400;2023-04-26T12:22:08;94679.53;;;16.28;47.06
32197;BME280;18697;42.770;23.400;2023-04-26T12:24:34;94680.53;;;16.31;47.95
32197;BME280;18697;42.770;23.400;2023-04-26T12:27:04;94679.13;;;16.19;48.72
32197;BME280;18697;42.770;23.400;2023-04-26T12:29:34;94678.06;;;16.22;49.47
32197;BME280;18697;42.770;23.400;2023-04-26T12:32:00;94677.41;;;16.10;49.06
32197;BME280;18697;42.770;23.400;2023-04-26T12:34:26;94676.09;;;16.17;48.47
32197;BME280;18697;42.770;23.400;2023-04-26T12:36:51;94679.94;;;16.38;49.62
32197;BME280;18697;42.770;23.400;2023-04-26T12:39:17;94673.56;;;16.62;46.28
32197;BME280;18697;42.770;23.400;2023-04-26T12:41:43;94673.03;;;16.63;48.50
32197;BME280;18697;42.770;23.400;2023-04-26T12:44:09;94682.50;;;16.60;46.57
32197;BME280;18697;42.770;23.400;2023-04-26T12:46:35;94667.56;;;16.52;45.61
32197;BME280;18697;42.770;23.400;2023-04-26T12:49:02;94676.31;;;16.43;44.95
32197;BME280;18697;42.770;23.400;2023-04-26T12:51:28;94662.81;;;16.41;48.01
32197;BME280;18697;42.770;23.400;2023-04-26T12:53:54;94680.44;;;16.61;48.91
32197;BME280;18697;42.770;23.400;2023-04-26T12:56:19;94656.16;;;16.44;47.04
32197;BME280;18697;42.770;23.400;2023-04-26T12:58:46;94667.66;;;16.41;47.72